Terminal Aerodrome Forecast
Issued by NWS Wilmington, OH

Current Version | Previous Version | Text Only | Print | Product List | Glossary Off
Versions: 1 2 3 4 5 6 7 8 9 10 11 12 13 14 15 16 17 18 19 20 21 22 23 24 25 26 27 28 29 30 31

000
FTUS41 KILN 150300 AAA
TAFDAY
TAF AMD
KDAY 150309Z 1503/1524 19006KT P6SM SCT025
      TEMPO 1503/1507 5SM BR BKN025
     FM150700 17005KT 5SM BR OVC025
     FM151400 15008KT P6SM BKN030
     FM151800 15008KT P6SM SCT030 BKN250
     FM152200 15009KT P6SM -RA OVC050=

USA.gov is the U.S. government's official web portal to all federal, state and local government web resources and services.